Time;durP1;ratioP1;P1;durP2;ratioP2;P2;SDS_P1;SDS_P2;PMS_P1;PMS_P2;Temp;Humidity;BMP_temperature;BMP_pressure;BME280_temperature;BME280_humidity;BME280_pressure;Samples;Min_cycle;Max_cycle;Signal;HPM_P1;HPM_P2
2023/06/22 00:00:13;;;;;;;9.60;7.50;;;;;;;23.90;63.58;101691.77;106795;1267;25363;-51
2023/06/22 00:02:40;;;;;;;9.60;7.90;;;;;;;23.89;63.67;101694.67;106860;1268;25412;-50
2023/06/22 00:05:07;;;;;;;10.10;8.40;;;;;;;23.87;63.76;101696.59;107044;1264;25332;-49
2023/06/22 00:07:34;;;;;;;9.60;8.10;;;;;;;23.86;63.90;101702.33;107099;1256;25357;-51
2023/06/22 00:10:01;;;;;;;13.20;8.40;;;;;;;23.85;63.83;101704.33;107043;1257;25427;-49
2023/06/22 00:12:29;;;;;;;10.00;7.80;;;;;;;23.83;64.07;101698.23;107080;1264;25400;-50
2023/06/22 00:14:56;;;;;;;9.10;7.60;;;;;;;23.82;64.17;101703.06;106440;1264;25397;-51
2023/06/22 00:17:23;;;;;;;8.80;7.90;;;;;;;23.82;64.27;101702.41;106823;1267;25466;-50
2023/06/22 00:19:53;;;;;;;8.80;7.90;;;;;;;23.81;64.42;101704.38;107095;1257;25552;-51
2023/06/22 00:22:28;;;;;;;8.10;7.30;;;;;;;23.80;64.38;101704.63;106863;1258;25332;-51
2023/06/22 00:24:56;;;;;;;10.50;7.90;;;;;;;23.79;64.50;101701.89;107130;1268;25332;-52
2023/06/22 00:27:23;;;;;;;8.70;7.80;;;;;;;23.78;64.63;101706.54;106876;1266;25394;-51
2023/06/22 00:29:49;;;;;;;8.10;7.40;;;;;;;23.77;64.83;101709.77;107157;1262;23297;-52
2023/06/22 00:32:17;;;;;;;8.40;7.50;;;;;;;23.77;64.77;101711.04;106823;1265;23059;-51
2023/06/22 00:34:47;;;;;;;7.70;7.00;;;;;;;23.77;64.84;101709.96;107144;1262;22517;-51
2023/06/22 00:37:15;;;;;;;8.70;7.10;;;;;;;23.76;64.99;101709.11;106899;1267;25449;-51
2023/06/22 00:39:45;;;;;;;7.90;7.10;;;;;;;23.75;65.04;101711.52;106826;1258;22524;-51
2023/06/22 00:42:12;;;;;;;7.70;7.00;;;;;;;23.75;65.02;101711.17;107093;1257;25502;-51
2023/06/22 00:44:39;;;;;;;9.30;8.20;;;;;;;23.73;65.09;101705.94;106812;1263;25329;-50
2023/06/22 00:47:06;;;;;;;9.00;8.10;;;;;;;23.73;65.18;101702.25;107044;1267;25370;-51
2023/06/22 00:49:33;;;;;;;11.70;8.50;;;;;;;23.73;65.26;101703.48;107057;1260;25319;-52
2023/06/22 00:52:00;;;;;;;10.00;8.70;;;;;;;23.73;65.39;101703.84;106849;1258;25435;-51
2023/06/22 00:54:28;;;;;;;8.80;7.90;;;;;;;23.73;65.43;101707.20;106879;1261;25332;-51
2023/06/22 00:56:57;;;;;;;8.70;7.80;;;;;;;23.73;65.51;101705.63;106895;1259;25350;-51
2023/06/22 00:59:24;;;;;;;9.30;8.20;;;;;;;23.73;65.58;101703.32;106544;1269;25553;-51
2023/06/22 01:01:51;;;;;;;9.60;8.60;;;;;;;23.73;65.53;101704.74;106717;1268;25370;-50
2023/06/22 01:04:18;;;;;;;9.20;8.30;;;;;;;23.73;65.52;101699.06;106433;1267;25486;-50
2023/06/22 01:06:58;;;;;;;9.60;8.30;;;;;;;23.73;65.47;101702.08;106789;1267;25343;-50
2023/06/22 01:09:28;;;;;;;9.10;8.30;;;;;;;23.73;65.44;101707.21;106602;1262;25475;-50
2023/06/22 01:11:59;;;;;;;9.00;8.00;;;;;;;23.72;65.32;101710.61;106935;1267;25332;-50
2023/06/22 01:14:33;;;;;;;9.70;8.70;;;;;;;23.69;65.27;101712.91;106876;1270;22527;-50
2023/06/22 01:17:00;;;;;;;10.00;9.10;;;;;;;23.65;65.50;101715.65;106867;1268;25325;-50
2023/06/22 01:19:41;;;;;;;11.00;9.60;;;;;;;23.61;65.93;101719.45;106695;1267;25405;-50
2023/06/22 01:22:12;;;;;;;10.10;9.10;;;;;;;23.57;66.35;101721.46;106786;1268;22530;-50
2023/06/22 01:25:09;;;;;;;10.00;9.00;;;;;;;23.54;66.72;101715.99;106822;1265;25265;-50
2023/06/22 01:27:45;;;;;;;11.40;9.10;;;;;;;23.55;66.82;101714.14;106734;1268;25499;-50
2023/06/22 01:30:14;;;;;;;12.60;8.60;;;;;;;23.56;66.80;101716.03;106961;1267;25332;-51
2023/06/22 01:32:41;;;;;;;10.60;9.60;;;;;;;23.57;66.73;101721.83;106865;1253;22530;-50
2023/06/22 01:35:08;;;;;;;11.70;9.80;;;;;;;23.58;66.60;101722.45;106843;1265;25332;-50
2023/06/22 01:37:37;;;;;;;9.70;8.70;;;;;;;23.60;66.59;101724.11;106802;1264;22530;-51
2023/06/22 01:40:05;;;;;;;9.80;8.80;;;;;;;23.62;66.64;101727.56;107086;1268;25517;-50
2023/06/22 01:42:33;;;;;;;9.40;8.60;;;;;;;23.63;66.92;101728.00;106830;1264;24263;-51
2023/06/22 01:45:00;;;;;;;8.90;8.20;;;;;;;23.65;67.13;101733.92;107247;1262;25227;-50
2023/06/22 01:47:27;;;;;;;9.20;8.30;;;;;;;23.64;67.42;101735.21;106916;1265;25878;-50
2023/06/22 01:49:55;;;;;;;9.60;8.70;;;;;;;23.64;67.09;101740.17;106953;1268;25384;-50
2023/06/22 01:52:22;;;;;;;9.30;8.40;;;;;;;23.65;66.86;101738.88;106677;1261;22545;-49
2023/06/22 01:54:49;;;;;;;9.10;8.20;;;;;;;23.68;66.83;101738.18;106743;1268;25367;-50
2023/06/22 01:57:16;;;;;;;12.30;10.30;;;;;;;23.71;67.10;101739.58;106690;1268;25332;-50
2023/06/22 02:00:09;;;;;;;9.70;8.30;;;;;;;23.73;67.28;101734.87;106602;1269;25463;-50
2023/06/22 02:03:05;;;;;;;8.50;7.70;;;;;;;23.76;67.49;101726.66;106724;1261;25450;-49
2023/06/22 02:05:35;;;;;;;9.40;8.50;;;;;;;23.82;67.47;101729.33;106682;1276;24201;-49
2023/06/22 02:08:16;;;;;;;9.60;8.70;;;;;;;23.81;67.73;101733.27;106713;1266;25360;-50
2023/06/22 02:10:43;;;;;;;8.80;8.00;;;;;;;23.83;67.59;101739.37;106728;1270;25348;-50
2023/06/22 02:13:10;;;;;;;8.80;8.00;;;;;;;23.83;67.30;101738.46;106763;1259;25409;-50
2023/06/22 02:15:38;;;;;;;9.00;8.20;;;;;;;23.83;67.03;101740.77;106532;1268;25480;-50
2023/06/22 02:18:06;;;;;;;10.10;8.70;;;;;;;23.84;66.81;101747.65;106640;1261;25582;-50
2023/06/22 02:20:37;;;;;;;9.30;8.50;;;;;;;23.85;66.92;101749.17;106658;1269;25407;-50
2023/06/22 02:23:05;;;;;;;9.40;8.50;;;;;;;23.85;66.94;101747.41;106753;1266;25242;-49
2023/06/22 02:25:34;;;;;;;10.00;9.00;;;;;;;23.86;67.05;101746.11;106796;1263;22519;-50
2023/06/22 02:28:02;;;;;;;9.60;8.70;;;;;;;23.87;67.02;101749.02;106809;1261;25484;-52
2023/06/22 02:30:29;;;;;;;9.80;8.80;;;;;;;23.88;67.17;101750.71;106782;1263;22553;-48
2023/06/22 02:32:59;;;;;;;10.70;9.60;;;;;;;23.89;67.03;101750.86;106819;1259;24024;-51
2023/06/22 02:35:33;;;;;;;10.40;9.00;;;;;;;23.94;66.85;101748.45;106885;1270;25320;-53
2023/06/22 02:38:00;;;;;;;10.70;9.60;;;;;;;23.91;66.97;101747.72;106763;1254;25059;-53
2023/06/22 02:40:29;;;;;;;10.40;9.30;;;;;;;23.89;67.23;101751.89;106590;1269;25363;-49
2023/06/22 02:43:02;;;;;;;10.90;9.50;;;;;;;23.89;67.27;101752.45;106797;1262;22573;-51
2023/06/22 02:45:29;;;;;;;9.90;8.80;;;;;;;23.88;67.12;101750.72;106916;1257;25456;-56
2023/06/22 02:47:57;;;;;;;10.90;9.50;;;;;;;23.89;66.88;101755.61;106813;1267;24222;-52
2023/06/22 02:50:24;;;;;;;10.50;8.80;;;;;;;23.88;66.49;101756.39;106715;1264;25353;-51
2023/06/22 02:52:51;;;;;;;10.20;8.90;;;;;;;23.88;66.05;101761.20;106881;1261;23308;-50
2023/06/22 02:55:18;;;;;;;13.50;8.50;;;;;;;23.89;65.85;101764.52;107004;1266;25328;-51
2023/06/22 02:57:52;;;;;;;10.80;8.90;;;;;;;23.89;66.00;101769.80;106914;1267;23029;-51
2023/06/22 03:00:20;;;;;;;9.40;8.60;;;;;;;23.98;65.79;101777.44;107085;1263;25337;-50
2023/06/22 03:02:47;;;;;;;13.20;9.20;;;;;;;24.03;65.44;101777.48;107131;1263;25360;-51
2023/06/22 03:05:17;;;;;;;10.10;8.60;;;;;;;24.04;65.33;101776.89;107072;1263;25402;-50
2023/06/22 03:07:45;;;;;;;10.20;9.20;;;;;;;23.95;65.42;101774.38;107045;1268;24190;-51
2023/06/22 03:10:13;;;;;;;10.90;9.80;;;;;;;23.92;65.39;101770.52;106659;1265;25394;-50
2023/06/22 03:12:41;;;;;;;11.20;9.20;;;;;;;23.91;65.31;101778.74;107167;1259;22525;-50
2023/06/22 03:15:10;;;;;;;10.70;9.10;;;;;;;23.90;65.20;101781.83;106850;1268;25389;-50
2023/06/22 03:17:39;;;;;;;9.90;9.00;;;;;;;23.88;65.08;101787.78;107067;1268;25422;-51
2023/06/22 03:20:10;;;;;;;10.00;8.80;;;;;;;23.87;64.95;101789.94;107060;1264;22556;-50
2023/06/22 03:22:41;;;;;;;10.20;8.50;;;;;;;23.87;64.99;101789.79;106849;1273;22542;-50
2023/06/22 03:25:13;;;;;;;9.30;8.40;;;;;;;23.88;64.94;101797.36;107154;1261;22534;-50
2023/06/22 03:27:42;;;;;;;8.40;7.60;;;;;;;23.90;64.86;101805.35;107156;1256;22663;-50
2023/06/22 03:30:10;;;;;;;9.10;8.10;;;;;;;23.91;64.92;101806.56;106875;1265;24269;-50
2023/06/22 03:32:37;;;;;;;9.20;8.20;;;;;;;23.92;65.05;101806.67;106840;1263;24219;-50
2023/06/22 03:35:06;;;;;;;11.20;7.60;;;;;;;23.94;64.94;101807.45;107124;1258;25340;-50
2023/06/22 03:37:34;;;;;;;8.60;7.80;;;;;;;23.97;64.96;101809.72;106847;1257;22523;-49
2023/06/22 03:40:05;;;;;;;8.60;7.80;;;;;;;24.00;65.16;101810.61;107100;1259;25354;-50
2023/06/22 03:42:34;;;;;;;10.80;8.30;;;;;;;24.05;65.26;101813.88;107082;1264;25327;-50
2023/06/22 03:45:03;;;;;;;7.90;7.10;;;;;;;24.20;64.88;101813.66;107118;1261;24350;-50
2023/06/22 03:47:30;;;;;;;9.10;7.90;;;;;;;24.39;64.23;101819.94;107020;1265;25332;-50
2023/06/22 03:49:58;;;;;;;8.70;7.80;;;;;;;24.62;63.53;101814.38;107091;1266;25360;-50
2023/06/22 03:52:25;;;;;;;7.80;7.00;;;;;;;24.81;62.96;101816.91;106803;1271;25481;-50
2023/06/22 03:54:52;;;;;;;12.80;7.80;;;;;;;24.97;62.23;101816.21;106762;1261;25385;-49
2023/06/22 03:57:19;;;;;;;8.50;7.60;;;;;;;25.17;61.91;101817.02;107129;1265;25383;-50
2023/06/22 03:59:46;;;;;;;8.70;7.60;;;;;;;25.37;61.32;101820.61;106859;1272;23260;-50
2023/06/22 04:02:13;;;;;;;8.00;6.90;;;;;;;25.54;60.72;101824.63;107045;1265;25409;-50
2023/06/22 04:04:40;;;;;;;8.50;7.10;;;;;;;25.67;60.39;101827.11;107041;1256;25357;-50
2023/06/22 04:07:08;;;;;;;8.20;7.20;;;;;;;25.76;60.16;101831.85;107073;1253;25457;-50
2023/06/22 04:09:35;;;;;;;8.30;7.10;;;;;;;25.83;59.88;101832.64;106887;1270;25366;-50
2023/06/22 04:12:03;;;;;;;11.60;7.40;;;;;;;25.92;59.61;101832.05;107010;1265;25322;-50
2023/06/22 04:14:30;;;;;;;8.10;7.30;;;;;;;26.06;59.24;101833.18;107110;1260;25430;-50
2023/06/22 04:16:57;;;;;;;7.60;6.70;;;;;;;26.24;58.64;101826.08;106713;1264;25386;-50
2023/06/22 04:19:25;;;;;;;8.30;7.50;;;;;;;26.39;57.94;101828.52;107162;1265;25360;-50
2023/06/22 04:21:52;;;;;;;9.30;7.10;;;;;;;26.44;57.93;101826.24;107146;1265;25419;-50
2023/06/22 04:24:19;;;;;;;9.10;6.80;;;;;;;26.39;57.93;101828.87;107110;1256;25368;-50
2023/06/22 04:26:46;;;;;;;7.60;6.80;;;;;;;26.30;58.09;101832.73;107082;1263;25360;-51
2023/06/22 04:29:14;;;;;;;10.60;7.80;;;;;;;26.17;58.30;101835.61;107139;1269;25336;-51
2023/06/22 04:31:41;;;;;;;9.60;7.20;;;;;;;26.06;58.36;101829.46;106868;1269;25272;-49
2023/06/22 04:34:08;;;;;;;7.50;6.70;;;;;;;25.96;58.27;101828.67;107008;1274;25341;-50
2023/06/22 04:36:40;;;;;;;8.10;6.50;;;;;;;25.87;58.14;101833.77;107111;1264;25341;-50
2023/06/22 04:39:09;;;;;;;;;;;;;;;25.79;58.38;101837.88;107178;1256;25366;-49
2023/06/22 04:41:43;;;;;;;8.00;6.50;;;;;;;25.73;58.73;101841.08;107094;1256;26509;-50
2023/06/22 04:44:13;;;;;;;11.20;7.90;;;;;;;25.68;58.65;101836.50;107034;1262;25348;-50
2023/06/22 04:46:40;;;;;;;8.10;7.30;;;;;;;25.65;58.79;101836.73;107143;1265;25357;-50
2023/06/22 04:49:10;;;;;;;9.10;7.50;;;;;;;25.63;58.88;101836.85;107099;1256;23389;-51
2023/06/22 04:51:41;;;;;;;8.10;7.40;;;;;;;25.65;58.96;101842.75;107017;1265;25318;-50
2023/06/22 04:54:09;;;;;;;;;;;;;;;25.64;58.97;101840.36;107124;1256;25337;-51
2023/06/22 04:56:36;;;;;;;7.90;7.10;;;;;;;25.65;58.95;101844.36;107227;1263;25485;-51
2023/06/22 04:59:03;;;;;;;7.90;7.10;;;;;;;25.67;58.83;101852.00;107124;1265;23351;-51
2023/06/22 05:01:31;;;;;;;10.70;7.80;;;;;;;25.68;58.95;101849.83;107043;1267;25482;-51
2023/06/22 05:04:00;;;;;;;8.50;7.70;;;;;;;25.72;58.95;101850.78;107083;1262;25399;-51
2023/06/22 05:06:28;;;;;;;11.90;8.50;;;;;;;25.83;58.94;101846.83;107117;1265;25332;-51
2023/06/22 05:08:57;;;;;;;8.50;7.70;;;;;;;26.00;58.82;101849.08;106959;1267;25360;-51
2023/06/22 05:11:27;;;;;;;9.60;8.40;;;;;;;26.20;58.44;101844.34;107090;1257;25216;-52
2023/06/22 05:13:54;;;;;;;9.30;7.90;;;;;;;26.44;58.03;101847.01;107116;1262;23399;-50
2023/06/22 05:16:24;;;;;;;8.30;7.50;;;;;;;26.76;57.55;101842.60;106930;1267;25360;-50
2023/06/22 05:18:55;;;;;;;8.70;7.70;;;;;;;27.10;56.76;101838.65;106815;1267;25315;-50
2023/06/22 05:21:23;;;;;;;10.10;7.70;;;;;;;27.47;55.81;101831.10;106957;1263;25494;-51
2023/06/22 05:23:51;;;;;;;8.40;7.60;;;;;;;27.86;54.82;101836.26;107251;1262;22533;-50
2023/06/22 05:26:19;;;;;;;8.20;7.50;;;;;;;28.25;53.59;101840.56;106844;1272;25391;-51
2023/06/22 05:28:47;;;;;;;7.70;7.00;;;;;;;28.63;52.89;101841.63;107118;1266;25380;-50
2023/06/22 05:31:14;;;;;;;8.00;7.30;;;;;;;28.99;52.00;101838.30;107078;1262;25329;-50
2023/06/22 05:33:42;;;;;;;8.70;7.60;;;;;;;29.28;50.99;101837.02;106974;1263;25346;-50
2023/06/22 05:36:10;;;;;;;9.30;7.60;;;;;;;29.43;50.19;101836.92;107097;1265;22608;-50
2023/06/22 05:38:37;;;;;;;8.50;7.70;;;;;;;29.51;49.89;101838.08;107138;1253;25405;-51
2023/06/22 05:41:04;;;;;;;9.20;7.20;;;;;;;29.52;49.86;101841.05;107135;1259;25325;-51
2023/06/22 05:43:31;;;;;;;10.50;7.50;;;;;;;29.49;49.44;101843.93;107087;1262;25357;-51
2023/06/22 05:45:59;;;;;;;9.20;8.20;;;;;;;29.46;49.47;101840.29;107282;1263;25482;-50
2023/06/22 05:48:26;;;;;;;8.90;7.80;;;;;;;29.46;49.64;101837.45;107278;1259;25339;-51
2023/06/22 05:50:54;;;;;;;9.10;8.30;;;;;;;29.48;49.83;101839.23;107110;1257;25482;-50
2023/06/22 05:53:21;;;;;;;9.10;8.20;;;;;;;29.53;49.70;101842.90;107116;1263;24209;-50
2023/06/22 05:55:48;;;;;;;9.20;7.90;;;;;;;29.60;49.70;101848.42;106790;1269;25409;-50
2023/06/22 05:58:15;;;;;;;11.30;8.00;;;;;;;29.67;49.66;101849.75;107067;1256;25321;-49
2023/06/22 06:00:43;;;;;;;8.40;7.60;;;;;;;29.80;49.58;101856.70;107121;1268;25409;-49
2023/06/22 06:03:10;;;;;;;8.60;7.90;;;;;;;30.01;49.58;101858.84;107214;1269;25332;-49
2023/06/22 06:05:40;;;;;;;12.80;8.10;;;;;;;30.27;49.15;101858.66;107132;1263;25357;-50
2023/06/22 06:08:10;;;;;;;9.90;7.70;;;;;;;30.46;48.16;101860.10;107085;1265;25380;-50
2023/06/22 06:10:37;;;;;;;7.70;7.00;;;;;;;30.54;47.90;101862.03;107081;1263;25309;-51
2023/06/22 06:13:05;;;;;;;8.00;7.20;;;;;;;30.51;47.83;101862.65;107074;1253;24253;-49
2023/06/22 06:15:32;;;;;;;8.10;7.40;;;;;;;30.40;48.19;101865.98;107175;1260;25332;-49
2023/06/22 06:17:59;;;;;;;10.40;7.50;;;;;;;30.27;48.43;101869.09;107062;1265;25340;-50
2023/06/22 06:20:29;;;;;;;8.90;7.00;;;;;;;30.19;48.84;101877.31;107114;1265;25481;-49
2023/06/22 06:22:57;;;;;;;7.90;7.20;;;;;;;30.22;48.73;101883.46;107095;1266;25360;-50
2023/06/22 06:25:24;;;;;;;7.50;6.90;;;;;;;30.28;48.91;101879.88;106838;1255;25321;-51
2023/06/22 06:27:51;;;;;;;7.70;6.90;;;;;;;30.31;48.59;101875.02;107140;1265;25322;-53
2023/06/22 06:30:18;;;;;;;7.70;6.90;;;;;;;30.30;48.94;101875.80;107148;1265;25332;-54
2023/06/22 06:32:46;;;;;;;7.10;6.50;;;;;;;30.39;49.58;101877.29;107085;1259;25346;-51
2023/06/22 06:35:14;;;;;;;7.60;6.80;;;;;;;30.50;49.03;101877.40;106706;1268;25227;-53
2023/06/22 06:37:45;;;;;;;7.50;6.90;;;;;;;30.50;48.91;101879.35;107009;1265;25306;-51
2023/06/22 06:40:13;;;;;;;8.10;7.40;;;;;;;30.42;49.06;101884.02;106952;1265;22523;-51
2023/06/22 06:42:44;;;;;;;7.70;7.00;;;;;;;30.30;49.38;101880.79;106815;1259;25357;-49
2023/06/22 06:45:25;;;;;;;6.90;6.20;;;;;;;30.15;49.72;101879.20;107162;1265;25428;-51
2023/06/22 06:47:52;;;;;;;8.80;6.50;;;;;;;30.00;50.08;101878.99;107164;1260;24266;-49
2023/06/22 06:50:19;;;;;;;6.80;6.10;;;;;;;29.87;50.19;101878.88;107208;1263;25248;-50
2023/06/22 06:52:46;;;;;;;6.70;6.10;;;;;;;29.75;50.57;101879.66;107128;1260;25323;-49
2023/06/22 06:55:13;;;;;;;8.80;6.30;;;;;;;29.65;50.76;101877.95;107035;1265;25338;-50
2023/06/22 06:57:41;;;;;;;6.30;5.80;;;;;;;29.60;51.06;101882.89;107084;1263;22523;-50
2023/06/22 07:00:11;;;;;;;7.50;6.10;;;;;;;29.57;51.58;101887.98;107064;1267;25311;-50
2023/06/22 07:02:45;;;;;;;7.10;6.40;;;;;;;29.55;51.57;101889.58;107039;1256;22633;-50
2023/06/22 07:05:13;;;;;;;6.90;6.00;;;;;;;29.52;51.47;101883.62;107029;1262;22527;-50
2023/06/22 07:07:42;;;;;;;7.10;6.40;;;;;;;29.49;51.80;101881.67;106650;1272;25332;-50
2023/06/22 07:10:10;;;;;;;7.30;6.50;;;;;;;29.46;51.92;101886.77;107070;1271;24283;-50
2023/06/22 07:12:37;;;;;;;7.10;6.40;;;;;;;29.39;52.04;101893.06;107151;1260;25409;-51
2023/06/22 07:15:07;;;;;;;7.60;6.70;;;;;;;29.38;52.16;101894.78;107109;1266;25321;-50
2023/06/22 07:17:35;;;;;;;8.90;6.50;;;;;;;29.56;51.90;101896.96;107039;1266;25227;-51
2023/06/22 07:20:07;;;;;;;7.70;6.90;;;;;;;29.65;51.56;101896.61;107088;1263;24197;-52
2023/06/22 07:22:35;;;;;;;7.20;6.50;;;;;;;29.73;50.98;101897.00;106887;1268;25321;-50
2023/06/22 07:25:08;;;;;;;13.10;7.20;;;;;;;29.76;50.75;101903.71;107039;1264;25322;-51
2023/06/22 07:27:42;;;;;;;6.60;6.10;;;;;;;29.78;50.92;101896.60;107063;1264;25478;-51
2023/06/22 07:30:10;;;;;;;6.80;6.20;;;;;;;29.84;51.08;101897.85;107167;1265;25408;-51
2023/06/22 07:32:37;;;;;;;7.40;6.10;;;;;;;29.92;50.94;101898.23;106900;1256;22639;-49
2023/06/22 07:35:04;;;;;;;7.10;6.00;;;;;;;29.98;50.79;101897.95;106566;1272;24254;-51
2023/06/22 07:37:33;;;;;;;6.70;6.10;;;;;;;30.05;51.03;101903.05;107155;1260;25336;-50
2023/06/22 07:40:00;;;;;;;7.80;6.00;;;;;;;30.15;50.92;101898.73;106987;1259;25481;-51
2023/06/22 07:42:27;;;;;;;6.90;6.30;;;;;;;30.26;51.15;101900.83;106828;1267;25360;-50
2023/06/22 07:44:55;;;;;;;7.10;6.40;;;;;;;30.35;50.70;101905.59;107061;1267;25481;-50
2023/06/22 07:47:25;;;;;;;7.40;6.70;;;;;;;30.41;50.66;101907.20;106837;1260;22526;-50
2023/06/22 07:49:55;;;;;;;7.70;6.90;;;;;;;30.46;50.24;101912.70;107037;1263;25783;-51
2023/06/22 07:52:22;;;;;;;7.10;6.50;;;;;;;30.45;50.27;101914.24;107068;1264;25482;-50
2023/06/22 07:54:49;;;;;;;7.20;6.50;;;;;;;30.43;50.15;101912.62;106945;1256;25517;-51
2023/06/22 07:57:16;;;;;;;6.90;6.30;;;;;;;30.40;50.59;101913.92;106799;1257;25358;-51
2023/06/22 07:59:43;;;;;;;6.90;6.10;;;;;;;30.40;50.29;101914.86;106864;1267;25527;-51
2023/06/22 08:02:10;;;;;;;6.80;6.30;;;;;;;30.39;50.60;101913.54;106728;1270;25353;-51
2023/06/22 08:04:38;;;;;;;7.30;6.70;;;;;;;30.39;50.64;101912.59;106992;1263;25315;-52
2023/06/22 08:07:05;;;;;;;7.70;7.00;;;;;;;30.38;50.68;101906.81;107001;1267;25321;-51
2023/06/22 08:09:32;;;;;;;7.30;6.60;;;;;;;30.37;50.55;101906.02;106730;1267;25433;-52
2023/06/22 08:11:59;;;;;;;8.50;7.10;;;;;;;30.37;50.50;101905.58;107074;1258;22526;-51
2023/06/22 08:14:27;;;;;;;6.80;6.20;;;;;;;30.38;50.52;101905.49;107029;1256;25395;-51
2023/06/22 08:16:54;;;;;;;7.40;6.70;;;;;;;30.41;50.62;101903.67;107094;1265;25409;-51
2023/06/22 08:19:21;;;;;;;7.00;6.40;;;;;;;30.45;51.05;101903.84;106735;1261;25350;-52
2023/06/22 08:21:48;;;;;;;7.40;6.70;;;;;;;30.50;50.72;101907.38;106982;1266;25481;-51
2023/06/22 08:24:15;;;;;;;7.60;6.90;;;;;;;30.51;50.19;101909.94;107118;1262;25353;-53
2023/06/22 08:26:42;;;;;;;7.70;6.80;;;;;;;30.53;50.75;101913.14;106801;1274;25348;-50
2023/06/22 08:29:09;;;;;;;8.30;7.10;;;;;;;30.57;50.22;101911.77;106990;1260;25482;-50
2023/06/22 08:31:36;;;;;;;8.40;7.40;;;;;;;30.57;50.13;101911.23;106605;1263;25421;-50
2023/06/22 08:34:04;;;;;;;7.30;6.60;;;;;;;30.54;50.18;101913.56;106875;1252;25482;-50
2023/06/22 08:36:32;;;;;;;8.00;6.90;;;;;;;30.55;50.09;101914.77;106939;1269;25436;-50
2023/06/22 08:39:02;;;;;;;7.70;7.00;;;;;;;30.56;50.42;101921.39;106721;1268;25792;-50
2023/06/22 08:41:30;;;;;;;6.70;5.60;;;;;;;30.54;49.93;101924.33;106835;1267;25284;-50
2023/06/22 08:43:57;;;;;;;8.20;7.00;;;;;;;30.53;49.67;101919.81;106916;1261;25347;-51
2023/06/22 08:46:30;;;;;;;6.80;6.20;;;;;;;30.51;50.00;101918.15;106874;1256;25387;-50
2023/06/22 08:49:00;;;;;;;7.30;6.60;;;;;;;30.50;50.52;101919.53;106666;1267;25319;-50
2023/06/22 08:51:29;;;;;;;8.20;6.80;;;;;;;30.52;49.97;101916.14;106930;1263;25360;-50
2023/06/22 08:53:56;;;;;;;7.40;6.80;;;;;;;30.52;50.01;101914.11;106594;1271;25354;-50
2023/06/22 08:56:23;;;;;;;7.50;6.80;;;;;;;30.51;49.64;101914.25;106812;1267;25501;-50
2023/06/22 08:58:50;;;;;;;7.10;6.40;;;;;;;30.49;50.07;101912.82;106812;1257;25335;-50
2023/06/22 09:01:17;;;;;;;8.70;7.10;;;;;;;30.50;50.11;101918.26;106691;1256;25413;-50
2023/06/22 09:03:48;;;;;;;7.60;7.00;;;;;;;30.52;49.64;101923.63;106481;1271;25373;-50
2023/06/22 09:06:16;;;;;;;7.30;6.70;;;;;;;30.52;49.83;101922.73;106990;1264;25344;-50
2023/06/22 09:08:43;;;;;;;9.10;6.70;;;;;;;30.55;50.03;101919.13;106907;1257;25347;-50
2023/06/22 09:11:10;;;;;;;7.90;7.20;;;;;;;30.57;49.89;101922.51;106908;1256;25312;-49
2023/06/22 09:13:37;;;;;;;7.40;6.60;;;;;;;30.62;49.86;101924.98;106990;1264;25408;-50
2023/06/22 09:16:04;;;;;;;9.10;6.70;;;;;;;30.65;49.97;101926.68;107163;1266;25311;-50
2023/06/22 09:18:31;;;;;;;7.00;6.40;;;;;;;30.68;49.84;101925.83;107088;1267;22541;-49
2023/06/22 09:20:58;;;;;;;10.40;6.60;;;;;;;30.71;49.80;101926.16;107072;1270;25398;-50
2023/06/22 09:23:25;;;;;;;7.10;6.50;;;;;;;30.73;49.91;101922.04;107133;1265;22652;-50
2023/06/22 09:25:52;;;;;;;10.90;7.30;;;;;;;30.77;49.94;101924.30;106788;1270;25388;-50
2023/06/22 09:28:20;;;;;;;7.40;6.70;;;;;;;30.82;49.85;101927.30;107056;1271;25354;-49
2023/06/22 09:30:47;;;;;;;7.50;6.80;;;;;;;30.84;49.98;101926.93;107027;1272;25442;-49
2023/06/22 09:33:14;;;;;;;8.10;7.40;;;;;;;30.91;49.88;101924.52;107085;1263;25312;-49
2023/06/22 09:35:41;;;;;;;7.80;6.80;;;;;;;30.93;49.64;101920.36;106989;1265;25370;-51
2023/06/22 09:38:08;;;;;;;8.20;6.60;;;;;;;30.82;49.69;101918.30;107111;1264;25432;-49
2023/06/22 09:40:39;;;;;;;8.10;6.80;;;;;;;30.79;50.12;101920.70;107112;1260;25341;-50
2023/06/22 09:43:06;;;;;;;;;;;;;;;30.79;50.09;101924.02;107129;1265;25348;-50
2023/06/22 09:45:33;;;;;;;7.50;6.80;;;;;;;30.76;50.32;101921.15;107084;1270;25482;-50
2023/06/22 09:48:00;;;;;;;7.70;7.00;;;;;;;30.75;50.66;101921.63;107212;1263;25509;-51
2023/06/22 09:50:28;;;;;;;7.30;6.50;;;;;;;30.78;50.75;101921.21;107076;1271;25335;-51
2023/06/22 09:52:55;;;;;;;8.00;7.00;;;;;;;30.82;50.55;101920.06;107125;1267;25551;-50
2023/06/22 09:55:22;;;;;;;7.20;6.60;;;;;;;30.87;50.55;101919.92;107019;1267;25353;-50
2023/06/22 09:57:50;;;;;;;7.60;6.90;;;;;;;30.91;50.67;101920.73;107100;1269;25551;-50
2023/06/22 10:00:18;;;;;;;9.80;7.20;;;;;;;30.97;50.53;101915.89;107157;1265;23875;-50
2023/06/22 10:02:46;;;;;;;8.40;7.50;;;;;;;31.03;50.13;101914.48;106804;1275;22597;-52
2023/06/22 10:05:13;;;;;;;7.50;6.80;;;;;;;31.06;49.90;101910.10;106631;1260;25244;-50
2023/06/22 10:07:43;;;;;;;8.10;7.40;;;;;;;31.08;49.87;101909.89;106803;1269;25322;-50
2023/06/22 10:10:11;;;;;;;8.90;6.70;;;;;;;31.10;49.79;101912.36;107048;1270;25402;-50
2023/06/22 10:12:57;;;;;;;7.90;7.20;;;;;;;31.09;49.94;101911.19;106780;1273;25404;-49
2023/06/22 10:15:26;;;;;;;7.20;6.60;;;;;;;31.11;50.21;101913.38;106861;1269;25412;-50
2023/06/22 10:17:54;;;;;;;7.50;6.90;;;;;;;31.13;50.16;101913.02;107067;1272;25402;-50
2023/06/22 10:20:22;;;;;;;7.40;6.70;;;;;;;31.15;50.01;101913.73;107127;1269;25314;-50
2023/06/22 10:22:49;;;;;;;8.00;7.20;;;;;;;31.16;49.92;101915.09;106864;1268;24190;-51
2023/06/22 10:25:16;;;;;;;8.60;7.30;;;;;;;31.20;49.62;101911.33;107029;1257;25343;-53
2023/06/22 10:27:44;;;;;;;7.40;6.70;;;;;;;31.34;49.19;101914.33;106881;1257;25363;-51
2023/06/22 10:30:12;;;;;;;7.70;6.90;;;;;;;31.37;48.86;101912.99;106861;1269;26729;-51
2023/06/22 10:32:40;;;;;;;7.60;6.90;;;;;;;31.39;49.26;101919.96;107161;1263;25281;-50
2023/06/22 10:35:10;;;;;;;7.60;6.80;;;;;;;31.42;49.18;101918.48;107101;1269;25360;-53
2023/06/22 10:37:38;;;;;;;8.20;7.40;;;;;;;31.43;48.95;101915.64;107068;1263;25346;-52
2023/06/22 10:40:05;;;;;;;10.60;7.40;;;;;;;31.44;48.75;101918.23;107082;1272;25336;-50
2023/06/22 10:42:33;;;;;;;7.90;7.10;;;;;;;31.46;48.70;101913.84;107126;1269;25332;-50
2023/06/22 10:45:00;;;;;;;8.00;7.20;;;;;;;31.47;48.59;101915.48;107150;1259;24242;-50
2023/06/22 10:47:27;;;;;;;7.70;6.80;;;;;;;31.47;48.13;101912.41;107117;1263;25319;-50
2023/06/22 10:49:54;;;;;;;7.30;6.60;;;;;;;31.48;48.03;101916.66;106759;1270;25353;-50
2023/06/22 10:52:21;;;;;;;7.90;6.90;;;;;;;31.49;47.72;101911.74;106820;1272;25485;-50
2023/06/22 10:54:48;;;;;;;7.90;7.20;;;;;;;31.50;47.74;101909.29;107076;1258;23338;-50
2023/06/22 10:57:15;;;;;;;7.30;6.60;;;;;;;31.52;47.32;101908.60;106859;1267;22517;-50
2023/06/22 10:59:42;;;;;;;7.10;6.40;;;;;;;31.52;46.12;101908.02;107076;1272;25369;-49
2023/06/22 11:02:09;;;;;;;7.70;6.60;;;;;;;31.53;45.20;101912.79;107069;1266;25353;-50
2023/06/22 11:04:36;;;;;;;6.50;5.90;;;;;;;31.54;45.02;101911.44;107173;1270;24186;-50
2023/06/22 11:07:04;;;;;;;6.20;5.50;;;;;;;31.56;44.39;101910.90;107077;1268;25325;-50
2023/06/22 11:09:32;;;;;;;6.30;5.70;;;;;;;31.57;44.20;101912.58;106878;1267;25384;-50
2023/06/22 11:11:59;;;;;;;5.50;5.00;;;;;;;31.59;44.22;101909.91;107022;1263;25350;-49
2023/06/22 11:14:27;;;;;;;6.70;6.00;;;;;;;31.61;44.68;101909.52;106575;1275;25431;-49
2023/06/22 11:16:54;;;;;;;6.70;6.10;;;;;;;31.63;44.48;101911.64;107074;1270;25424;-50
2023/06/22 11:19:21;;;;;;;8.00;7.10;;;;;;;31.65;44.33;101912.18;107075;1272;25312;-50
2023/06/22 11:21:49;;;;;;;6.40;5.90;;;;;;;31.66;44.13;101908.81;107147;1267;25312;-51